createdAt,value
2023-04-19T00:02:02.893Z,98492.63
2023-04-19T00:04:30.311Z,98496.88
2023-04-19T00:06:58.461Z,98495.22
2023-04-19T00:09:25.442Z,98498.94
2023-04-19T00:11:52.878Z,98492.47
2023-04-19T00:14:20.021Z,98484.44
2023-04-19T00:16:46.759Z,98495.72
2023-04-19T00:19:13.587Z,98498.50
2023-04-19T00:21:40.407Z,98498.13
2023-04-19T00:24:07.297Z,98487.28
2023-04-19T00:26:34.007Z,98488.47
2023-04-19T00:29:01.128Z,98487.66
2023-04-19T00:31:28.015Z,98499.84
2023-04-19T00:33:54.887Z,98485.53
2023-04-19T00:36:21.529Z,98490.75
2023-04-19T00:38:48.181Z,98490.75
2023-04-19T00:41:14.890Z,98485.72
2023-04-19T00:43:41.888Z,98483.16
2023-04-19T00:46:08.839Z,98476.72
2023-04-19T00:48:38.900Z,98486.44
2023-04-19T00:51:06.046Z,98456.56
2023-04-19T00:53:32.949Z,98492.94
2023-04-19T00:56:02.184Z,98482.75
2023-04-19T00:58:31.532Z,98479.28
2023-04-19T01:00:58.706Z,98482.41
2023-04-19T01:03:27.723Z,98473.31
2023-04-19T01:05:55.367Z,98486.09
2023-04-19T01:08:22.100Z,98479.91
2023-04-19T01:10:48.846Z,98473.22
2023-04-19T01:13:15.878Z,98469.44
2023-04-19T01:15:42.576Z,98475.69
2023-04-19T01:18:09.364Z,98449.13
2023-04-19T01:20:35.997Z,98469.91
2023-04-19T01:23:03.103Z,98469.00
2023-04-19T01:25:30.004Z,98469.06
2023-04-19T01:27:56.792Z,98452.69
2023-04-19T01:30:23.982Z,98470.91
2023-04-19T01:32:50.927Z,98469.41
2023-04-19T01:35:17.700Z,98465.13
2023-04-19T01:37:44.486Z,98461.56
2023-04-19T01:40:11.704Z,98466.75
2023-04-19T01:42:38.499Z,98460.16
2023-04-19T01:45:05.687Z,98450.41
2023-04-19T01:47:32.501Z,98457.59
2023-04-19T01:49:59.159Z,98465.56
2023-04-19T01:52:25.861Z,98465.63
2023-04-19T01:54:52.513Z,98466.50
2023-04-19T01:57:19.334Z,98458.84
2023-04-19T01:59:47.481Z,98452.78
2023-04-19T02:02:14.339Z,98430.69
2023-04-19T02:04:41.118Z,98455.03
2023-04-19T02:07:07.997Z,98456.69
2023-04-19T02:09:38.737Z,98451.06
2023-04-19T02:12:06.038Z,98455.56
2023-04-19T02:14:32.821Z,98452.34
2023-04-19T02:16:59.549Z,98454.38
2023-04-19T02:19:26.833Z,98436.31
2023-04-19T02:21:57.680Z,98455.44
2023-04-19T02:24:25.339Z,98454.44
2023-04-19T02:26:52.347Z,98445.19
2023-04-19T02:29:19.134Z,98452.88
2023-04-19T02:31:46.517Z,98446.09
2023-04-19T02:34:13.631Z,98449.06
2023-04-19T02:36:40.638Z,98441.81
2023-04-19T02:39:07.423Z,98446.50
2023-04-19T02:41:37.768Z,98444.56
2023-04-19T02:44:05.048Z,98438.44
2023-04-19T02:46:31.823Z,98446.59
2023-04-19T02:49:00.841Z,98426.69
2023-04-19T02:51:27.643Z,98445.19
2023-04-19T02:53:54.528Z,98442.53
2023-04-19T02:56:21.189Z,98442.09
2023-04-19T02:58:47.937Z,98443.97
2023-04-19T03:01:14.868Z,98444.75
2023-04-19T03:03:41.818Z,98442.31
2023-04-19T03:06:09.107Z,98437.81
2023-04-19T03:08:36.460Z,98424.47
2023-04-19T03:11:03.258Z,98441.34
2023-04-19T03:13:30.993Z,98435.56
2023-04-19T03:15:57.654Z,98434.00
2023-04-19T03:18:24.864Z,98430.59
2023-04-19T03:20:54.376Z,98413.47
2023-04-19T03:23:21.672Z,98438.81
2023-04-19T03:25:50.223Z,98426.81
2023-04-19T03:28:35.950Z,98427.56
2023-04-19T03:31:18.501Z,98425.63
2023-04-19T03:33:48.998Z,98429.88
2023-04-19T03:36:16.179Z,98414.53
2023-04-19T03:38:45.100Z,98421.66
2023-04-19T03:41:27.353Z,98414.41
2023-04-19T03:44:22.901Z,98422.09
2023-04-19T03:46:50.027Z,98428.22
2023-04-19T03:49:21.801Z,98426.56
2023-04-19T03:51:54.061Z,98425.47
2023-04-19T03:54:20.970Z,98421.44
2023-04-19T03:56:47.651Z,98419.94
2023-04-19T03:59:14.944Z,98423.19
2023-04-19T04:01:42.878Z,98418.88
2023-04-19T04:04:10.188Z,98409.59
2023-04-19T04:06:37.522Z,98414.00
2023-04-19T04:09:04.479Z,98420.19
2023-04-19T04:11:31.336Z,98418.78
2023-04-19T04:13:58.420Z,98421.53
2023-04-19T04:16:31.366Z,98421.78
2023-04-19T04:18:58.176Z,98409.94
2023-04-19T04:21:29.772Z,98420.28
2023-04-19T04:24:02.066Z,98419.28
2023-04-19T04:26:39.531Z,98423.50
2023-04-19T04:29:33.150Z,98420.84
2023-04-19T04:32:01.962Z,98421.84
2023-04-19T04:34:36.711Z,98416.78
2023-04-19T04:37:08.944Z,98422.19
2023-04-19T04:39:39.502Z,98416.53
2023-04-19T04:42:10.708Z,98423.59
2023-04-19T04:44:41.545Z,98420.25
2023-04-19T04:47:10.039Z,98417.69
2023-04-19T04:49:42.774Z,98418.63
2023-04-19T04:52:09.679Z,98415.03
2023-04-19T04:54:45.696Z,98419.09
2023-04-19T04:57:21.720Z,98420.13
2023-04-19T04:59:48.805Z,98422.16
2023-04-19T05:02:18.563Z,98401.56
2023-04-19T05:04:45.447Z,98416.53
2023-04-19T05:07:12.273Z,98418.72
2023-04-19T05:09:39.147Z,98421.59
2023-04-19T05:12:06.331Z,98416.22
2023-04-19T05:14:33.039Z,98404.72
2023-04-19T05:16:59.742Z,98417.13
2023-04-19T05:19:26.640Z,98426.66
2023-04-19T05:22:00.304Z,98415.56
2023-04-19T05:24:27.085Z,98413.59
2023-04-19T05:26:54.062Z,98416.66
2023-04-19T05:29:20.868Z,98418.78
2023-04-19T05:31:50.380Z,98418.63
2023-04-19T05:34:22.332Z,98414.25
2023-04-19T05:36:49.750Z,98407.09
2023-04-19T05:39:17.121Z,98406.84
2023-04-19T05:41:44.067Z,98411.00
2023-04-19T05:44:10.850Z,98409.75
2023-04-19T05:46:37.701Z,98407.03
2023-04-19T05:49:06.377Z,98409.97
2023-04-19T05:51:38.971Z,98402.03
2023-04-19T05:54:12.731Z,98413.34
2023-04-19T05:56:41.103Z,98408.69
2023-04-19T05:59:08.389Z,98408.81
2023-04-19T06:01:35.559Z,98407.81
2023-04-19T06:04:02.637Z,98404.00
2023-04-19T06:06:30.369Z,98370.63
2023-04-19T06:08:57.201Z,98398.41
2023-04-19T06:11:31.507Z,98395.50
2023-04-19T06:14:06.056Z,98396.94
2023-04-19T06:16:33.010Z,98399.16
2023-04-19T06:18:59.896Z,98392.97
2023-04-19T06:21:27.071Z,98380.44
2023-04-19T06:23:53.728Z,98399.19
2023-04-19T06:26:20.650Z,98394.72
2023-04-19T06:28:47.607Z,98399.13
2023-04-19T06:31:14.234Z,98398.47
2023-04-19T06:33:41.121Z,98391.69
2023-04-19T06:36:08.105Z,98384.78
2023-04-19T06:38:34.925Z,98387.53
2023-04-19T06:41:01.604Z,98374.69
2023-04-19T06:43:28.360Z,98383.50
2023-04-19T06:46:02.908Z,98372.75
2023-04-19T06:48:29.702Z,98376.47
2023-04-19T06:50:56.771Z,98358.38
2023-04-19T06:53:23.784Z,98372.41
2023-04-19T06:55:59.767Z,98370.69
2023-04-19T06:58:27.416Z,98362.06
2023-04-19T07:00:54.668Z,98363.59
2023-04-19T07:03:22.098Z,98365.16
2023-04-19T07:05:49.054Z,98359.69
2023-04-19T07:08:16.196Z,98359.44
2023-04-19T07:10:43.863Z,98360.25
2023-04-19T07:13:11.719Z,98366.13
2023-04-19T07:15:38.567Z,98351.81
2023-04-19T07:18:05.573Z,98344.00
2023-04-19T07:20:32.359Z,98352.22
2023-04-19T07:22:59.612Z,98343.28
2023-04-19T07:25:26.729Z,98338.38
2023-04-19T07:27:54.907Z,98335.44
2023-04-19T07:30:21.806Z,98337.09
2023-04-19T07:32:48.864Z,98332.00
2023-04-19T07:35:15.839Z,98329.91
2023-04-19T07:37:42.682Z,98332.19
2023-04-19T07:40:10.011Z,98324.06
2023-04-19T07:42:36.790Z,98320.88
2023-04-19T07:45:03.690Z,98317.06
2023-04-19T07:47:31.456Z,98316.69
2023-04-19T07:49:58.130Z,98314.00
2023-04-19T07:52:24.875Z,98314.38
2023-04-19T07:54:51.665Z,98313.94
2023-04-19T07:57:18.503Z,98314.72
2023-04-19T07:59:45.222Z,98310.91
2023-04-19T08:02:12.308Z,98301.59
2023-04-19T08:04:39.862Z,98307.06
2023-04-19T08:07:06.901Z,98296.00
2023-04-19T08:09:34.584Z,98301.03
2023-04-19T08:12:01.632Z,98294.75
2023-04-19T08:14:40.075Z,98288.31
2023-04-19T08:17:25.367Z,98289.09
2023-04-19T08:19:53.959Z,98277.97
2023-04-19T08:22:21.652Z,98285.88
2023-04-19T08:24:51.997Z,98280.28
2023-04-19T08:27:19.533Z,98282.09
2023-04-19T08:29:46.542Z,98276.03
2023-04-19T08:32:13.664Z,98280.19
2023-04-19T08:34:40.678Z,98276.88
2023-04-19T08:37:07.674Z,98263.59
2023-04-19T08:39:35.039Z,98263.28
2023-04-19T08:42:13.404Z,98263.97
2023-04-19T08:45:17.149Z,98262.56
2023-04-19T08:47:58.826Z,98260.22
2023-04-19T08:50:35.321Z,98253.06
2023-04-19T08:56:03.553Z,98246.00
2023-04-19T08:58:50.215Z,98246.22
2023-04-19T09:01:33.858Z,98248.56
2023-04-19T09:04:10.447Z,98238.13
2023-04-19T09:06:48.434Z,98218.94
2023-04-19T09:09:38.651Z,98232.22
2023-04-19T09:12:20.455Z,98229.81
2023-04-19T09:15:00.559Z,98230.03
2023-04-19T09:17:28.487Z,98218.91
2023-04-19T09:19:55.530Z,98218.47
2023-04-19T09:22:22.465Z,98210.44
2023-04-19T09:27:30.569Z,98175.78
2023-04-19T09:30:02.090Z,98207.72
2023-04-19T09:32:44.589Z,98197.75
2023-04-19T09:35:11.330Z,98195.59
2023-04-19T09:40:24.976Z,98183.06
2023-04-19T09:45:29.803Z,98160.41
2023-04-19T09:48:05.885Z,98170.03
2023-04-19T09:50:34.210Z,98170.88
2023-04-19T09:53:10.969Z,98175.25
2023-04-19T09:55:52.386Z,98146.44
2023-04-19T09:58:26.276Z,98154.50
2023-04-19T10:01:10.479Z,98150.41
2023-04-19T10:03:40.968Z,98159.31
2023-04-19T10:06:14.534Z,98147.13
2023-04-19T10:08:50.024Z,98139.91
2023-04-19T10:11:17.885Z,98139.19
2023-04-19T10:13:47.371Z,98133.72
2023-04-19T10:16:19.369Z,98135.69
2023-04-19T10:18:50.013Z,98100.28
2023-04-19T10:21:19.293Z,98121.69
2023-04-19T10:23:46.857Z,98121.66
2023-04-19T10:26:13.566Z,98113.41
2023-04-19T10:28:42.124Z,98116.03
2023-04-19T10:31:13.323Z,98116.03
2023-04-19T10:33:41.525Z,98106.31
2023-04-19T10:36:14.876Z,98104.59
2023-04-19T10:38:49.754Z,98093.59
2023-04-19T10:41:18.818Z,98090.19
2023-04-19T10:43:48.490Z,98090.63
2023-04-19T10:46:21.100Z,98080.94
2023-04-19T10:48:54.986Z,98090.19
2023-04-19T10:51:32.534Z,98077.72
2023-04-19T10:54:00.847Z,98072.97
2023-04-19T10:56:33.886Z,98068.84
2023-04-19T10:59:13.229Z,98061.19
2023-04-19T11:01:53.556Z,98048.78
2023-04-19T11:04:30.675Z,98033.84
2023-04-19T11:07:01.534Z,98032.13
2023-04-19T11:09:30.709Z,98037.19
2023-04-19T11:12:03.070Z,98029.81
2023-04-19T11:14:39.208Z,98022.97
2023-04-19T11:17:19.291Z,98021.31
2023-04-19T11:20:00.098Z,98020.28
2023-04-19T11:22:33.624Z,98011.81
2023-04-19T11:25:07.256Z,98011.66
2023-04-19T11:27:34.483Z,97997.50
2023-04-19T11:30:06.643Z,98003.44
2023-04-19T11:32:34.604Z,97988.41
2023-04-19T11:35:07.850Z,97991.22
2023-04-19T11:37:36.494Z,97973.38
2023-04-19T11:40:05.605Z,97968.81
2023-04-19T11:42:33.794Z,97948.44
2023-04-19T11:45:00.551Z,97965.94
2023-04-19T11:47:27.811Z,97951.03
2023-04-19T11:50:18.069Z,97963.72
2023-04-19T11:52:49.707Z,97947.13
2023-04-19T11:55:19.993Z,97938.31
2023-04-19T11:57:48.191Z,97940.34
2023-04-19T12:00:15.284Z,97941.84
2023-04-19T12:02:44.349Z,97935.16
2023-04-19T12:05:13.072Z,97932.88
2023-04-19T12:08:06.729Z,97927.81
2023-04-19T12:10:34.147Z,97931.78
2023-04-19T12:13:01.334Z,97927.56
2023-04-19T12:15:44.856Z,97911.25
2023-04-19T12:18:11.843Z,97910.47
2023-04-19T12:20:44.040Z,97899.88
2023-04-19T12:23:16.518Z,97903.47
2023-04-19T12:25:46.398Z,97893.03
2023-04-19T12:28:14.390Z,97888.63
2023-04-19T12:30:41.671Z,97880.03
2023-04-19T12:33:09.009Z,97877.88
2023-04-19T12:35:36.214Z,97883.63
2023-04-19T12:38:03.474Z,97884.59
2023-04-19T12:40:30.710Z,97881.13
2023-04-19T12:42:57.514Z,97873.31
2023-04-19T12:45:24.380Z,97867.84
2023-04-19T12:47:51.127Z,97861.44
2023-04-19T12:50:18.003Z,97859.00
2023-04-19T12:52:45.552Z,97856.88
2023-04-19T12:55:12.540Z,97857.19
2023-04-19T12:57:39.399Z,97844.16
2023-04-19T13:00:07.444Z,97845.78
2023-04-19T13:02:34.986Z,97835.00
2023-04-19T13:05:02.379Z,97835.31
2023-04-19T13:07:29.236Z,97826.31
2023-04-19T13:09:56.997Z,97823.06
2023-04-19T13:12:24.140Z,97826.13
2023-04-19T13:14:52.496Z,97824.16
2023-04-19T13:17:20.133Z,97819.56
2023-04-19T13:19:47.595Z,97809.44
2023-04-19T13:22:14.988Z,97808.03
2023-04-19T13:24:41.819Z,97807.41
2023-04-19T13:27:09.204Z,97798.75
2023-04-19T13:29:36.442Z,97780.03
2023-04-19T13:32:03.629Z,97795.38
2023-04-19T13:34:31.056Z,97795.84
2023-04-19T13:36:58.291Z,97784.06
2023-04-19T13:39:25.473Z,97783.25
2023-04-19T13:41:52.158Z,97782.88
2023-04-19T13:44:19.187Z,97756.50
2023-04-19T13:46:46.191Z,97769.63
2023-04-19T13:49:12.944Z,97773.06
2023-04-19T13:51:49.729Z,97760.66
2023-04-19T13:54:18.452Z,97763.28
2023-04-19T13:56:45.979Z,97749.59
2023-04-19T13:59:12.702Z,97754.03
2023-04-19T14:01:39.706Z,97750.56
2023-04-19T14:04:06.808Z,97744.00
2023-04-19T14:06:33.679Z,97746.22
2023-04-19T14:09:00.392Z,97735.44
2023-04-19T14:11:27.150Z,97735.53
2023-04-19T14:13:54.077Z,97745.91
2023-04-19T14:16:24.223Z,97733.38
2023-04-19T14:18:51.951Z,97727.06
2023-04-19T14:21:19.140Z,97715.34
2023-04-19T14:23:45.966Z,97723.16
2023-04-19T14:26:12.857Z,97719.66
2023-04-19T14:28:39.539Z,97721.53
2023-04-19T14:31:06.339Z,97715.84
2023-04-19T14:33:33.308Z,97713.31
2023-04-19T14:36:00.182Z,97719.84
2023-04-19T14:38:27.184Z,97709.59
2023-04-19T14:40:53.921Z,97701.78
2023-04-19T14:43:20.644Z,97698.56
2023-04-19T14:45:52.278Z,97691.88
2023-04-19T14:48:21.922Z,97698.44
2023-04-19T14:50:49.170Z,97693.75
2023-04-19T14:53:16.267Z,97690.97
2023-04-19T14:55:43.150Z,97679.59
2023-04-19T14:58:09.986Z,97687.25
2023-04-19T15:00:36.667Z,97681.06
2023-04-19T15:03:03.515Z,97684.47
2023-04-19T15:05:30.564Z,97677.28
2023-04-19T15:07:57.246Z,97664.13
2023-04-19T15:10:24.009Z,97672.28
2023-04-19T15:12:50.701Z,97675.53
2023-04-19T15:15:17.604Z,97674.06
2023-04-19T15:17:44.460Z,97672.09
2023-04-19T15:20:11.517Z,97668.22
2023-04-19T15:22:38.213Z,97664.28
2023-04-19T15:25:05.672Z,97667.53
2023-04-19T15:27:32.863Z,97667.78
2023-04-19T15:29:59.697Z,97663.84
2023-04-19T15:32:26.561Z,97660.38
2023-04-19T15:34:53.448Z,97666.47
2023-04-19T15:37:20.299Z,97661.94
2023-04-19T15:39:50.371Z,97667.03
2023-04-19T15:42:17.284Z,97659.72
2023-04-19T15:44:44.350Z,97659.38
2023-04-19T15:47:11.275Z,97655.97
2023-04-19T15:49:37.994Z,97662.47
2023-04-19T15:52:05.049Z,97660.03
2023-04-19T15:54:31.877Z,97656.44
2023-04-19T15:56:58.945Z,97659.81
2023-04-19T15:59:25.910Z,97651.16
2023-04-19T16:01:52.752Z,97651.97
2023-04-19T16:04:19.663Z,97651.44
2023-04-19T16:06:46.611Z,97653.69
2023-04-19T16:09:13.405Z,97652.28
2023-04-19T16:11:40.399Z,97653.69
2023-04-19T16:14:07.153Z,97662.03
2023-04-19T16:16:34.682Z,97654.88
2023-04-19T16:19:01.684Z,97619.78
2023-04-19T16:21:28.845Z,97654.63
2023-04-19T16:23:56.322Z,97649.28
2023-04-19T16:26:23.374Z,97647.19
2023-04-19T16:28:50.088Z,97647.03
2023-04-19T16:31:17.132Z,97655.00
2023-04-19T16:33:44.069Z,97647.69
2023-04-19T16:36:10.950Z,97647.38
2023-04-19T16:38:37.729Z,97648.69
2023-04-19T16:41:05.926Z,97643.00
2023-04-19T16:43:33.155Z,97642.81
2023-04-19T16:46:00.107Z,97645.78
2023-04-19T16:48:27.130Z,97638.94
2023-04-19T16:50:53.951Z,97647.38
2023-04-19T16:53:20.778Z,97634.53
2023-04-19T16:55:47.975Z,97647.25
2023-04-19T16:58:15.056Z,97631.13
2023-04-19T17:00:42.087Z,97635.84
2023-04-19T17:03:11.902Z,97621.66
2023-04-19T17:05:38.865Z,97627.50
2023-04-19T17:08:05.935Z,97624.56
2023-04-19T17:10:32.797Z,97630.28
2023-04-19T17:12:59.646Z,97626.19
2023-04-19T17:15:26.849Z,97606.38
2023-04-19T17:17:53.663Z,97617.91
2023-04-19T17:20:20.575Z,97618.38
2023-04-19T17:22:47.402Z,97605.22
2023-04-19T17:25:14.283Z,97624.72
2023-04-19T17:27:41.178Z,97617.06
2023-04-19T17:30:08.702Z,97619.03
2023-04-19T17:32:35.567Z,97606.50
2023-04-19T17:35:04.220Z,97618.53
2023-04-19T17:37:31.278Z,97623.25
2023-04-19T17:39:58.324Z,97622.06
2023-04-19T17:42:25.968Z,97619.44
2023-04-19T17:44:53.076Z,97628.06
2023-04-19T17:47:20.443Z,97597.56
2023-04-19T17:49:47.688Z,97619.84
2023-04-19T17:52:14.428Z,97630.56
2023-04-19T17:54:41.282Z,97626.16
2023-04-19T17:57:08.006Z,97634.06
2023-04-19T17:59:35.323Z,97635.38
2023-04-19T18:02:02.478Z,97644.00
2023-04-19T18:04:30.978Z,97641.38
2023-04-19T18:06:57.805Z,97644.47
2023-04-19T18:09:24.526Z,97649.66
2023-04-19T18:11:51.129Z,97648.38
2023-04-19T18:14:17.893Z,97660.53
2023-04-19T18:16:44.619Z,97658.25
2023-04-19T18:19:11.417Z,97664.38
2023-04-19T18:21:38.561Z,97666.44
2023-04-19T18:24:05.940Z,97668.31
2023-04-19T18:26:40.900Z,97671.41
2023-04-19T18:29:08.023Z,97677.13
2023-04-19T18:31:34.833Z,97670.28
2023-04-19T18:34:02.802Z,97687.53
2023-04-19T18:36:29.527Z,97694.94
2023-04-19T18:38:56.310Z,97698.47
2023-04-19T18:41:23.067Z,97707.53
2023-04-19T18:44:12.864Z,97727.09
2023-04-19T18:46:36.775Z,97737.09
2023-04-19T18:49:03.435Z,97694.00
2023-04-19T18:51:30.700Z,97685.91
2023-04-19T18:53:57.553Z,97686.91
2023-04-19T18:56:56.197Z,97691.91
2023-04-19T18:59:11.322Z,97704.88
2023-04-19T19:01:38.815Z,97708.97
2023-04-19T19:06:35.863Z,97714.31
2023-04-19T19:09:03.367Z,97711.88
2023-04-19T19:14:01.718Z,97735.63
2023-04-19T19:16:31.018Z,97736.97
2023-04-19T19:18:57.980Z,97744.19
2023-04-19T19:21:24.892Z,97750.72
2023-04-19T19:23:53.504Z,97754.13
2023-04-19T19:26:20.239Z,97749.47
2023-04-19T19:28:47.372Z,97746.31
2023-04-19T19:31:14.164Z,97754.09
2023-04-19T19:33:41.028Z,97757.75
2023-04-19T19:36:08.046Z,97764.72
2023-04-19T19:38:36.054Z,97751.59
2023-04-19T19:43:35.644Z,97775.25
2023-04-19T19:46:02.971Z,97779.06
2023-04-19T19:48:30.644Z,97783.16
2023-04-19T19:53:29.066Z,97787.13
2023-04-19T19:55:56.782Z,97787.00
2023-04-19T19:58:46.244Z,97794.19
2023-04-19T20:01:10.500Z,97780.31
2023-04-19T20:03:38.260Z,97797.50
2023-04-19T20:06:35.674Z,97799.13
2023-04-19T20:08:56.309Z,97793.16
2023-04-19T20:11:23.700Z,97805.13
2023-04-19T20:13:50.793Z,97816.44
2023-04-19T20:16:21.107Z,97812.34
2023-04-19T20:18:49.285Z,97830.59
2023-04-19T20:21:19.424Z,97831.69
2023-04-19T20:23:46.478Z,97836.34
2023-04-19T20:26:13.180Z,97824.63
2023-04-19T20:28:40.071Z,97843.41
2023-04-19T20:31:06.882Z,97844.50
2023-04-19T20:33:33.654Z,97837.81
2023-04-19T20:36:00.610Z,97849.81
2023-04-19T20:38:27.490Z,97846.13
2023-04-19T20:40:55.324Z,97828.41
2023-04-19T20:43:23.497Z,97852.56
2023-04-19T20:45:50.327Z,97843.16
2023-04-19T20:48:17.655Z,97836.19
2023-04-19T20:50:44.420Z,97846.72
2023-04-19T20:53:11.256Z,97853.66
2023-04-19T20:55:38.365Z,97851.47
2023-04-19T20:58:05.505Z,97862.63
2023-04-19T21:00:32.297Z,97850.38
2023-04-19T21:02:59.320Z,97856.66
2023-04-19T21:05:26.474Z,97865.66
2023-04-19T21:07:53.373Z,97870.06
2023-04-19T21:10:22.025Z,97856.94
2023-04-19T21:12:49.105Z,97875.06
2023-04-19T21:15:16.138Z,97874.66
2023-04-19T21:17:43.110Z,97885.56
2023-04-19T21:20:14.263Z,97896.88
2023-04-19T21:22:42.500Z,97896.44
2023-04-19T21:25:10.371Z,97906.72
2023-04-19T21:27:37.057Z,97893.19
2023-04-19T21:30:07.136Z,97914.03
2023-04-19T21:32:34.303Z,97922.19
2023-04-19T21:35:01.960Z,97910.88
2023-04-19T21:37:28.878Z,97916.59
2023-04-19T21:39:57.567Z,97900.91
2023-04-19T21:42:24.398Z,97922.47
2023-04-19T21:44:51.421Z,97920.41
2023-04-19T21:47:19.042Z,97922.16
2023-04-19T21:49:47.202Z,97926.94
2023-04-19T21:52:14.060Z,97923.00
2023-04-19T21:54:40.703Z,97923.84
2023-04-19T21:57:07.530Z,97921.13
2023-04-19T21:59:37.918Z,97919.91
2023-04-19T22:02:04.805Z,97920.31
2023-04-19T22:04:31.771Z,97925.44
2023-04-19T22:07:02.149Z,97927.13
2023-04-19T22:09:29.874Z,97929.50
2023-04-19T22:11:56.617Z,97931.19
2023-04-19T22:14:24.087Z,97923.50
2023-04-19T22:16:51.048Z,97909.50
2023-04-19T22:19:18.239Z,97915.44
2023-04-19T22:21:46.782Z,97909.69
2023-04-19T22:24:13.583Z,97910.88
2023-04-19T22:26:40.224Z,97900.28
2023-04-19T22:29:06.980Z,97908.69
2023-04-19T22:31:33.720Z,97913.59
2023-04-19T22:34:00.558Z,97907.22
2023-04-19T22:36:28.394Z,97905.97
2023-04-19T22:38:55.265Z,97918.19
2023-04-19T22:41:21.913Z,97908.81
2023-04-19T22:43:48.678Z,97916.44
2023-04-19T22:46:15.443Z,97913.31
2023-04-19T22:48:42.601Z,97921.22
2023-04-19T22:51:11.044Z,97903.72
2023-04-19T22:53:38.183Z,97920.53
2023-04-19T22:56:05.899Z,97919.97
2023-04-19T22:58:32.617Z,97915.72
2023-04-19T23:00:59.449Z,97910.44
2023-04-19T23:03:26.301Z,97911.13
2023-04-19T23:05:56.213Z,97911.69
2023-04-19T23:08:23.358Z,97910.34
2023-04-19T23:10:51.923Z,97917.97
2023-04-19T23:13:18.830Z,97899.00
2023-04-19T23:15:45.840Z,97913.38
2023-04-19T23:18:12.772Z,97913.91
2023-04-19T23:20:39.669Z,97893.63
2023-04-19T23:23:07.953Z,97911.22
2023-04-19T23:25:35.032Z,97902.06
2023-04-19T23:28:01.761Z,97889.22
2023-04-19T23:30:29.636Z,97903.66
2023-04-19T23:32:56.417Z,97900.63
2023-04-19T23:35:23.316Z,97901.94
2023-04-19T23:37:50.052Z,97909.75
2023-04-19T23:40:16.817Z,97901.72
2023-04-19T23:42:43.549Z,97891.09
2023-04-19T23:45:11.412Z,97895.00
2023-04-19T23:47:38.327Z,97885.00
2023-04-19T23:50:05.450Z,97892.19
2023-04-19T23:52:32.372Z,97884.63
2023-04-19T23:54:59.018Z,97896.81
2023-04-19T23:57:25.937Z,97887.22
2023-04-19T23:59:52.621Z,97886.03
